Terminal Aerodrome Forecast
Issued by NWS Wilmington, OH

Home | Current Version | Previous Version | Text Only | Print | Product List | Glossary On
Versions: 1 2 3 4 5 6 7 8 9 10 11 12 13 14 15 16 17 18
000
FTUS41 KILN 241400 AAA
TAFDAY
TAF AMD
KDAY 241407Z 2414/2512 02012KT P6SM SCT015
      TEMPO 2414/2415 BKN015
     FM241500 02012KT P6SM BKN015
     FM241800 02010KT P6SM BKN025
     FM242300 03006KT P6SM SKC
     FM250900 14003KT 5SM BR SKC=

USA.gov is the U.S. government's official web portal to all federal, state and local government web resources and services.